sensor_id;sensor_type;location;lat;lon;timestamp;temperature;humidity
45463;SHT31;31209;49.456;11.134;2022-09-01T00:00:58;18.0;95.07
45463;SHT31;31209;49.456;11.134;2022-09-01T00:01:59;18.02;95.09
45463;SHT31;31209;49.456;11.134;2022-09-01T00:03:00;18.03;94.94
45463;SHT31;31209;49.456;11.134;2022-09-01T00:04:01;18.03;94.96
45463;SHT31;31209;49.456;11.134;2022-09-01T00:05:03;18.03;94.98
45463;SHT31;31209;49.456;11.134;2022-09-01T00:06:04;17.99;95.09
45463;SHT31;31209;49.456;11.134;2022-09-01T00:07:05;17.96;95.24
45463;SHT31;31209;49.456;11.134;2022-09-01T00:08:06;17.95;95.24
45463;SHT31;31209;49.456;11.134;2022-09-01T00:09:10;17.89;95.4
45463;SHT31;31209;49.456;11.134;2022-09-01T00:10:11;17.89;95.28
45463;SHT31;31209;49.456;11.134;2022-09-01T00:11:17;17.92;95.3
45463;SHT31;31209;49.456;11.134;2022-09-01T00:12:18;17.93;95.21
45463;SHT31;31209;49.456;11.134;2022-09-01T00:13:19;17.93;95.13
45463;SHT31;31209;49.456;11.134;2022-09-01T00:14:22;17.92;95.2
45463;SHT31;31209;49.456;11.134;2022-09-01T00:15:24;17.92;95.11
45463;SHT31;31209;49.456;11.134;2022-09-01T00:16:25;17.92;95.12
45463;SHT31;31209;49.456;11.134;2022-09-01T00:17:26;17.93;95.11
45463;SHT31;31209;49.456;11.134;2022-09-01T00:18:26;17.96;95.13
45463;SHT31;31209;49.456;11.134;2022-09-01T00:19:27;17.99;95.14
45463;SHT31;31209;49.456;11.134;2022-09-01T00:20:28;17.98;95.21
45463;SHT31;31209;49.456;11.134;2022-09-01T00:21:32;17.96;95.3
45463;SHT31;31209;49.456;11.134;2022-09-01T00:22:33;17.93;95.25
45463;SHT31;31209;49.456;11.134;2022-09-01T00:23:35;17.9;95.36
45463;SHT31;31209;49.456;11.134;2022-09-01T00:24:36;17.9;95.47
45463;SHT31;31209;49.456;11.134;2022-09-01T00:25:37;17.92;95.49
45463;SHT31;31209;49.456;11.134;2022-09-01T00:26:38;17.9;95.51
45463;SHT31;31209;49.456;11.134;2022-09-01T00:27:39;17.9;95.58
45463;SHT31;31209;49.456;11.134;2022-09-01T00:28:40;17.92;95.55
45463;SHT31;31209;49.456;11.134;2022-09-01T00:29:41;17.9;95.59
45463;SHT31;31209;49.456;11.134;2022-09-01T00:30:41;17.89;95.59
45463;SHT31;31209;49.456;11.134;2022-09-01T00:31:42;17.93;95.58
45463;SHT31;31209;49.456;11.134;2022-09-01T00:32:44;17.9;95.57
45463;SHT31;31209;49.456;11.134;2022-09-01T00:33:46;17.9;95.58
45463;SHT31;31209;49.456;11.134;2022-09-01T00:34:47;17.9;95.7
45463;SHT31;31209;49.456;11.134;2022-09-01T00:35:47;17.92;95.66
45463;SHT31;31209;49.456;11.134;2022-09-01T00:36:48;17.96;95.62
45463;SHT31;31209;49.456;11.134;2022-09-01T00:37:49;17.93;95.59
45463;SHT31;31209;49.456;11.134;2022-09-01T00:38:50;17.95;95.61
45463;SHT31;31209;49.456;11.134;2022-09-01T00:39:52;17.95;95.65
45463;SHT31;31209;49.456;11.134;2022-09-01T00:40:53;17.96;95.78
45463;SHT31;31209;49.456;11.134;2022-09-01T00:41:54;17.95;95.83
45463;SHT31;31209;49.456;11.134;2022-09-01T00:42:54;17.93;95.78
45463;SHT31;31209;49.456;11.134;2022-09-01T00:43:57;17.93;95.71
45463;SHT31;31209;49.456;11.134;2022-09-01T00:44:59;17.95;95.7
45463;SHT31;31209;49.456;11.134;2022-09-01T00:46:00;17.9;95.73
45463;SHT31;31209;49.456;11.134;2022-09-01T00:47:01;17.88;95.87
45463;SHT31;31209;49.456;11.134;2022-09-01T00:48:02;17.88;95.85
45463;SHT31;31209;49.456;11.134;2022-09-01T00:49:07;17.89;95.74
45463;SHT31;31209;49.456;11.134;2022-09-01T00:50:10;17.88;95.73
45463;SHT31;31209;49.456;11.134;2022-09-01T00:51:12;17.88;95.71
45463;SHT31;31209;49.456;11.134;2022-09-01T00:52:16;17.88;95.63
45463;SHT31;31209;49.456;11.134;2022-09-01T00:53:19;17.88;95.66
45463;SHT31;31209;49.456;11.134;2022-09-01T00:54:23;17.83;95.73
45463;SHT31;31209;49.456;11.134;2022-09-01T00:55:29;17.83;95.68
45463;SHT31;31209;49.456;11.134;2022-09-01T00:56:30;17.83;95.73
45463;SHT31;31209;49.456;11.134;2022-09-01T00:57:32;17.79;95.7
45463;SHT31;31209;49.456;11.134;2022-09-01T00:58:33;17.79;95.75
45463;SHT31;31209;49.456;11.134;2022-09-01T00:59:38;17.79;95.75
45463;SHT31;31209;49.456;11.134;2022-09-01T01:00:43;17.78;95.75
45463;SHT31;31209;49.456;11.134;2022-09-01T01:01:46;17.71;95.76
45463;SHT31;31209;49.456;11.134;2022-09-01T01:02:48;17.72;95.85
45463;SHT31;31209;49.456;11.134;2022-09-01T01:03:49;17.72;95.92
45463;SHT31;31209;49.456;11.134;2022-09-01T01:04:50;17.73;95.94
45463;SHT31;31209;49.456;11.134;2022-09-01T01:05:54;17.78;95.97
45463;SHT31;31209;49.456;11.134;2022-09-01T01:06:58;17.79;95.88
45463;SHT31;31209;49.456;11.134;2022-09-01T01:07:59;17.78;95.87
45463;SHT31;31209;49.456;11.134;2022-09-01T01:09:01;17.76;95.89
45463;SHT31;31209;49.456;11.134;2022-09-01T01:10:03;17.78;95.99
45463;SHT31;31209;49.456;11.134;2022-09-01T01:11:08;17.78;96.04
45463;SHT31;31209;49.456;11.134;2022-09-01T01:12:14;17.75;96.11
45463;SHT31;31209;49.456;11.134;2022-09-01T01:13:16;17.71;96.16
45463;SHT31;31209;49.456;11.134;2022-09-01T01:14:16;17.71;96.29
45463;SHT31;31209;49.456;11.134;2022-09-01T01:15:18;17.71;96.29
45463;SHT31;31209;49.456;11.134;2022-09-01T01:16:20;17.72;96.31
45463;SHT31;31209;49.456;11.134;2022-09-01T01:17:21;17.71;96.3
45463;SHT31;31209;49.456;11.134;2022-09-01T01:18:22;17.68;96.37
45463;SHT31;31209;49.456;11.134;2022-09-01T01:19:31;17.66;96.42
45463;SHT31;31209;49.456;11.134;2022-09-01T01:20:35;17.66;96.49
45463;SHT31;31209;49.456;11.134;2022-09-01T01:21:41;17.66;96.55
45463;SHT31;31209;49.456;11.134;2022-09-01T01:22:48;17.68;96.61
45463;SHT31;31209;49.456;11.134;2022-09-01T01:23:57;17.68;96.64
45463;SHT31;31209;49.456;11.134;2022-09-01T01:25:00;17.68;96.7
45463;SHT31;31209;49.456;11.134;2022-09-01T01:26:03;17.66;96.73
45463;SHT31;31209;49.456;11.134;2022-09-01T01:27:04;17.68;96.77
45463;SHT31;31209;49.456;11.134;2022-09-01T01:28:10;17.69;96.89
45463;SHT31;31209;49.456;11.134;2022-09-01T01:29:11;17.68;96.94
45463;SHT31;31209;49.456;11.134;2022-09-01T01:30:12;17.69;96.9
45463;SHT31;31209;49.456;11.134;2022-09-01T01:31:15;17.68;96.81
45463;SHT31;31209;49.456;11.134;2022-09-01T01:32:16;17.64;96.95
45463;SHT31;31209;49.456;11.134;2022-09-01T01:33:18;17.61;97.02
45463;SHT31;31209;49.456;11.134;2022-09-01T01:34:19;17.58;97.11
45463;SHT31;31209;49.456;11.134;2022-09-01T01:35:20;17.54;97.19
45463;SHT31;31209;49.456;11.134;2022-09-01T01:36:23;17.55;97.13
45463;SHT31;31209;49.456;11.134;2022-09-01T01:37:24;17.51;97.23
45463;SHT31;31209;49.456;11.134;2022-09-01T01:38:25;17.51;97.25
45463;SHT31;31209;49.456;11.134;2022-09-01T01:39:26;17.49;97.2
45463;SHT31;31209;49.456;11.134;2022-09-01T01:40:28;17.52;97.18
45463;SHT31;31209;49.456;11.134;2022-09-01T01:41:32;17.47;97.25
45463;SHT31;31209;49.456;11.134;2022-09-01T01:42:33;17.54;97.32
45463;SHT31;31209;49.456;11.134;2022-09-01T01:43:33;17.48;97.33
45463;SHT31;31209;49.456;11.134;2022-09-01T01:44:36;17.48;97.38
45463;SHT31;31209;49.456;11.134;2022-09-01T01:45:36;17.48;97.49
45463;SHT31;31209;49.456;11.134;2022-09-01T01:46:40;17.48;97.45
45463;SHT31;31209;49.456;11.134;2022-09-01T01:47:42;17.49;97.46
45463;SHT31;31209;49.456;11.134;2022-09-01T01:48:43;17.47;97.45
45463;SHT31;31209;49.456;11.134;2022-09-01T01:49:44;17.48;97.44
45463;SHT31;31209;49.456;11.134;2022-09-01T01:50:45;17.47;97.41
45463;SHT31;31209;49.456;11.134;2022-09-01T01:51:47;17.45;97.37
45463;SHT31;31209;49.456;11.134;2022-09-01T01:52:48;17.45;97.32
45463;SHT31;31209;49.456;11.134;2022-09-01T01:53:49;17.49;97.4
45463;SHT31;31209;49.456;11.134;2022-09-01T01:54:50;17.47;97.44
45463;SHT31;31209;49.456;11.134;2022-09-01T01:55:51;17.44;97.51
45463;SHT31;31209;49.456;11.134;2022-09-01T01:56:52;17.42;97.51
45463;SHT31;31209;49.456;11.134;2022-09-01T01:57:53;17.35;97.51
45463;SHT31;31209;49.456;11.134;2022-09-01T01:58:55;17.37;97.57
45463;SHT31;31209;49.456;11.134;2022-09-01T01:59:56;17.38;97.62
45463;SHT31;31209;49.456;11.134;2022-09-01T02:00:57;17.37;97.59
45463;SHT31;31209;49.456;11.134;2022-09-01T02:01:58;17.34;97.63
45463;SHT31;31209;49.456;11.134;2022-09-01T02:02:59;17.32;97.64
45463;SHT31;31209;49.456;11.134;2022-09-01T02:04:01;17.34;97.7
45463;SHT31;31209;49.456;11.134;2022-09-01T02:05:02;17.26;97.75
45463;SHT31;31209;49.456;11.134;2022-09-01T02:06:05;17.31;97.73
45463;SHT31;31209;49.456;11.134;2022-09-01T02:07:09;17.29;97.7
45463;SHT31;31209;49.456;11.134;2022-09-01T02:08:10;17.24;97.7
45463;SHT31;31209;49.456;11.134;2022-09-01T02:09:12;17.25;97.72
45463;SHT31;31209;49.456;11.134;2022-09-01T02:10:13;17.25;97.72
45463;SHT31;31209;49.456;11.134;2022-09-01T02:11:16;17.26;97.73
45463;SHT31;31209;49.456;11.134;2022-09-01T02:12:16;17.28;97.78
45463;SHT31;31209;49.456;11.134;2022-09-01T02:13:19;17.31;97.77
45463;SHT31;31209;49.456;11.134;2022-09-01T02:14:21;17.31;97.68
45463;SHT31;31209;49.456;11.134;2022-09-01T02:15:21;17.31;97.69
45463;SHT31;31209;49.456;11.134;2022-09-01T02:16:28;17.31;97.77
45463;SHT31;31209;49.456;11.134;2022-09-01T02:17:29;17.25;97.73
45463;SHT31;31209;49.456;11.134;2022-09-01T02:18:33;17.24;97.79
45463;SHT31;31209;49.456;11.134;2022-09-01T02:19:34;17.21;97.82
45463;SHT31;31209;49.456;11.134;2022-09-01T02:20:35;17.18;97.87
45463;SHT31;31209;49.456;11.134;2022-09-01T02:21:35;17.21;97.88
45463;SHT31;31209;49.456;11.134;2022-09-01T02:22:36;17.18;97.84
45463;SHT31;31209;49.456;11.134;2022-09-01T02:23:39;17.18;97.92
45463;SHT31;31209;49.456;11.134;2022-09-01T02:24:40;17.15;98.1
45463;SHT31;31209;49.456;11.134;2022-09-01T02:25:43;17.17;98.07
45463;SHT31;31209;49.456;11.134;2022-09-01T02:26:45;17.17;97.97
45463;SHT31;31209;49.456;11.134;2022-09-01T02:27:46;17.15;97.93
45463;SHT31;31209;49.456;11.134;2022-09-01T02:28:47;17.11;98.01
45463;SHT31;31209;49.456;11.134;2022-09-01T02:29:48;17.11;98.08
45463;SHT31;31209;49.456;11.134;2022-09-01T02:30:50;17.08;98.06
45463;SHT31;31209;49.456;11.134;2022-09-01T02:31:53;17.05;98.04
45463;SHT31;31209;49.456;11.134;2022-09-01T02:32:54;17.01;98.17
45463;SHT31;31209;49.456;11.134;2022-09-01T02:33:55;17.01;98.16
45463;SHT31;31209;49.456;11.134;2022-09-01T02:34:55;16.98;98.18
45463;SHT31;31209;49.456;11.134;2022-09-01T02:35:58;17.0;98.19
45463;SHT31;31209;49.456;11.134;2022-09-01T02:37:00;16.96;98.15
45463;SHT31;31209;49.456;11.134;2022-09-01T02:38:01;16.93;98.28
45463;SHT31;31209;49.456;11.134;2022-09-01T02:39:03;16.9;98.33
45463;SHT31;31209;49.456;11.134;2022-09-01T02:40:07;16.87;98.36
45463;SHT31;31209;49.456;11.134;2022-09-01T02:41:08;16.84;98.42
45463;SHT31;31209;49.456;11.134;2022-09-01T02:42:09;16.81;98.53
45463;SHT31;31209;49.456;11.134;2022-09-01T02:43:11;16.8;98.52
45463;SHT31;31209;49.456;11.134;2022-09-01T02:44:12;16.79;98.56
45463;SHT31;31209;49.456;11.134;2022-09-01T02:45:13;16.8;98.55
45463;SHT31;31209;49.456;11.134;2022-09-01T02:46:14;16.76;98.56
45463;SHT31;31209;49.456;11.134;2022-09-01T02:47:14;16.77;98.55
45463;SHT31;31209;49.456;11.134;2022-09-01T02:48:15;16.79;98.54
45463;SHT31;31209;49.456;11.134;2022-09-01T02:49:19;16.76;98.5
45463;SHT31;31209;49.456;11.134;2022-09-01T02:50:20;16.73;98.56
45463;SHT31;31209;49.456;11.134;2022-09-01T02:51:22;16.74;98.64
45463;SHT31;31209;49.456;11.134;2022-09-01T02:52:23;16.73;98.6
45463;SHT31;31209;49.456;11.134;2022-09-01T02:53:24;16.71;98.65
45463;SHT31;31209;49.456;11.134;2022-09-01T02:54:26;16.73;98.52
45463;SHT31;31209;49.456;11.134;2022-09-01T02:55:27;16.74;98.47
45463;SHT31;31209;49.456;11.134;2022-09-01T02:56:28;16.76;98.5
45463;SHT31;31209;49.456;11.134;2022-09-01T02:57:30;16.73;98.52
45463;SHT31;31209;49.456;11.134;2022-09-01T02:58:31;16.7;98.55
45463;SHT31;31209;49.456;11.134;2022-09-01T02:59:32;16.7;98.6
45463;SHT31;31209;49.456;11.134;2022-09-01T03:00:33;16.66;98.61
45463;SHT31;31209;49.456;11.134;2022-09-01T03:01:34;16.65;98.63
45463;SHT31;31209;49.456;11.134;2022-09-01T03:02:34;16.63;98.68
45463;SHT31;31209;49.456;11.134;2022-09-01T03:03:35;16.66;98.73
45463;SHT31;31209;49.456;11.134;2022-09-01T03:04:36;16.63;98.65
45463;SHT31;31209;49.456;11.134;2022-09-01T03:05:38;16.66;98.65
45463;SHT31;31209;49.456;11.134;2022-09-01T03:06:39;16.6;98.63
45463;SHT31;31209;49.456;11.134;2022-09-01T03:07:40;16.56;98.76
45463;SHT31;31209;49.456;11.134;2022-09-01T03:08:41;16.56;98.73
45463;SHT31;31209;49.456;11.134;2022-09-01T03:09:41;16.57;98.71
45463;SHT31;31209;49.456;11.134;2022-09-01T03:10:43;16.53;98.8
45463;SHT31;31209;49.456;11.134;2022-09-01T03:11:48;16.51;98.85
45463;SHT31;31209;49.456;11.134;2022-09-01T03:12:49;16.5;98.9
45463;SHT31;31209;49.456;11.134;2022-09-01T03:13:51;16.4;98.95
45463;SHT31;31209;49.456;11.134;2022-09-01T03:14:52;16.39;99.17
45463;SHT31;31209;49.456;11.134;2022-09-01T03:15:53;16.39;99.16
45463;SHT31;31209;49.456;11.134;2022-09-01T03:16:53;16.39;99.15
45463;SHT31;31209;49.456;11.134;2022-09-01T03:17:55;16.35;99.21
45463;SHT31;31209;49.456;11.134;2022-09-01T03:18:56;16.3;99.27
45463;SHT31;31209;49.456;11.134;2022-09-01T03:19:57;16.27;99.27
45463;SHT31;31209;49.456;11.134;2022-09-01T03:20:58;16.3;99.35
45463;SHT31;31209;49.456;11.134;2022-09-01T03:21:59;16.22;99.43
45463;SHT31;31209;49.456;11.134;2022-09-01T03:22:59;16.22;99.4
45463;SHT31;31209;49.456;11.134;2022-09-01T03:24:01;16.2;99.42
45463;SHT31;31209;49.456;11.134;2022-09-01T03:25:02;16.2;99.45
45463;SHT31;31209;49.456;11.134;2022-09-01T03:26:03;16.19;99.53
45463;SHT31;31209;49.456;11.134;2022-09-01T03:27:04;16.18;99.51
45463;SHT31;31209;49.456;11.134;2022-09-01T03:28:04;16.16;99.49
45463;SHT31;31209;49.456;11.134;2022-09-01T03:29:06;16.14;99.51
45463;SHT31;31209;49.456;11.134;2022-09-01T03:30:07;16.14;99.51
45463;SHT31;31209;49.456;11.134;2022-09-01T03:31:08;16.12;99.51
45463;SHT31;31209;49.456;11.134;2022-09-01T03:32:09;16.14;99.56
45463;SHT31;31209;49.456;11.134;2022-09-01T03:33:10;16.05;99.62
45463;SHT31;31209;49.456;11.134;2022-09-01T03:34:11;16.01;99.69
45463;SHT31;31209;49.456;11.134;2022-09-01T03:35:12;15.95;99.72
45463;SHT31;31209;49.456;11.134;2022-09-01T03:36:13;15.92;99.81
45463;SHT31;31209;49.456;11.134;2022-09-01T03:37:14;15.91;99.76
45463;SHT31;31209;49.456;11.134;2022-09-01T03:38:15;15.9;99.86
45463;SHT31;31209;49.456;11.134;2022-09-01T03:39:16;15.85;99.86
45463;SHT31;31209;49.456;11.134;2022-09-01T03:40:17;15.85;99.89
45463;SHT31;31209;49.456;11.134;2022-09-01T03:41:20;15.82;99.84
45463;SHT31;31209;49.456;11.134;2022-09-01T03:42:21;15.82;99.9
45463;SHT31;31209;49.456;11.134;2022-09-01T03:43:22;15.76;100.01
45463;SHT31;31209;49.456;11.134;2022-09-01T03:44:23;15.78;100.13
45463;SHT31;31209;49.456;11.134;2022-09-01T03:45:24;15.75;99.98
45463;SHT31;31209;49.456;11.134;2022-09-01T03:46:26;15.76;100.02
45463;SHT31;31209;49.456;11.134;2022-09-01T03:47:27;15.75;100.02
45463;SHT31;31209;49.456;11.134;2022-09-01T03:48:28;15.68;100.08
45463;SHT31;31209;49.456;11.134;2022-09-01T03:49:29;15.69;100.02
45463;SHT31;31209;49.456;11.134;2022-09-01T03:50:30;15.64;100.17
45463;SHT31;31209;49.456;11.134;2022-09-01T03:51:31;15.67;100.1
45463;SHT31;31209;49.456;11.134;2022-09-01T03:52:32;15.62;100.18
45463;SHT31;31209;49.456;11.134;2022-09-01T03:53:36;15.58;100.29
45463;SHT31;31209;49.456;11.134;2022-09-01T03:54:37;15.57;100.38
45463;SHT31;31209;49.456;11.134;2022-09-01T03:55:38;15.57;100.38
45463;SHT31;31209;49.456;11.134;2022-09-01T03:56:39;15.51;100.41
45463;SHT31;31209;49.456;11.134;2022-09-01T03:57:40;15.48;100.41
45463;SHT31;31209;49.456;11.134;2022-09-01T03:58:41;15.51;100.35
45463;SHT31;31209;49.456;11.134;2022-09-01T03:59:42;15.48;100.39
45463;SHT31;31209;49.456;11.134;2022-09-01T04:00:46;15.5;100.33
45463;SHT31;31209;49.456;11.134;2022-09-01T04:01:47;15.5;100.33
45463;SHT31;31209;49.456;11.134;2022-09-01T04:02:49;15.45;100.33
45463;SHT31;31209;49.456;11.134;2022-09-01T04:03:50;15.4;100.44
45463;SHT31;31209;49.456;11.134;2022-09-01T04:04:51;15.41;100.44
45463;SHT31;31209;49.456;11.134;2022-09-01T04:05:53;15.4;100.38
45463;SHT31;31209;49.456;11.134;2022-09-01T04:06:54;15.36;100.46
45463;SHT31;31209;49.456;11.134;2022-09-01T04:07:57;15.28;100.49
45463;SHT31;31209;49.456;11.134;2022-09-01T04:08:58;15.27;100.52
45463;SHT31;31209;49.456;11.134;2022-09-01T04:09:59;15.28;100.59
45463;SHT31;31209;49.456;11.134;2022-09-01T04:11:02;15.26;100.61
45463;SHT31;31209;49.456;11.134;2022-09-01T04:12:05;15.27;100.64
45463;SHT31;31209;49.456;11.134;2022-09-01T04:13:05;15.27;100.53
45463;SHT31;31209;49.456;11.134;2022-09-01T04:14:09;15.26;100.5
45463;SHT31;31209;49.456;11.134;2022-09-01T04:15:12;15.21;100.62
45463;SHT31;31209;49.456;11.134;2022-09-01T04:16:19;15.14;100.76
45463;SHT31;31209;49.456;11.134;2022-09-01T04:17:21;15.14;100.9
45463;SHT31;31209;49.456;11.134;2022-09-01T04:18:22;15.12;101.0
45463;SHT31;31209;49.456;11.134;2022-09-01T04:19:24;15.1;100.98
45463;SHT31;31209;49.456;11.134;2022-09-01T04:20:25;15.06;100.97
45463;SHT31;31209;49.456;11.134;2022-09-01T04:22:12;15.1;100.97
45463;SHT31;31209;49.456;11.134;2022-09-01T04:23:23;15.1;100.98
45463;SHT31;31209;49.456;11.134;2022-09-01T04:24:25;15.06;100.91
45463;SHT31;31209;49.456;11.134;2022-09-01T04:25:26;15.06;100.88
45463;SHT31;31209;49.456;11.134;2022-09-01T04:26:27;15.0;100.98
45463;SHT31;31209;49.456;11.134;2022-09-01T04:27:28;14.96;101.0
45463;SHT31;31209;49.456;11.134;2022-09-01T04:28:31;14.94;101.06
45463;SHT31;31209;49.456;11.134;2022-09-01T04:29:32;14.93;101.14
45463;SHT31;31209;49.456;11.134;2022-09-01T04:30:33;14.92;101.15
45463;SHT31;31209;49.456;11.134;2022-09-01T04:31:36;14.9;101.17
45463;SHT31;31209;49.456;11.134;2022-09-01T04:32:37;14.9;101.13
45463;SHT31;31209;49.456;11.134;2022-09-01T04:33:38;14.9;101.15
45463;SHT31;31209;49.456;11.134;2022-09-01T04:34:39;14.9;101.18
45463;SHT31;31209;49.456;11.134;2022-09-01T04:35:39;14.89;101.21
45463;SHT31;31209;49.456;11.134;2022-09-01T04:36:42;14.85;101.33
45463;SHT31;31209;49.456;11.134;2022-09-01T04:37:44;14.89;101.25
45463;SHT31;31209;49.456;11.134;2022-09-01T04:38:46;14.83;101.37
45463;SHT31;31209;49.456;11.134;2022-09-01T04:39:48;14.85;101.37
45463;SHT31;31209;49.456;11.134;2022-09-01T04:40:50;14.82;101.42
45463;SHT31;31209;49.456;11.134;2022-09-01T04:41:51;14.83;101.47
45463;SHT31;31209;49.456;11.134;2022-09-01T04:42:52;14.85;101.39
45463;SHT31;31209;49.456;11.134;2022-09-01T04:43:53;14.89;101.33
45463;SHT31;31209;49.456;11.134;2022-09-01T04:44:54;14.92;101.22
45463;SHT31;31209;49.456;11.134;2022-09-01T04:45:55;14.87;101.25
45463;SHT31;31209;49.456;11.134;2022-09-01T04:46:56;14.83;101.25
45463;SHT31;31209;49.456;11.134;2022-09-01T04:47:57;14.89;101.29
45463;SHT31;31209;49.456;11.134;2022-09-01T04:48:58;14.87;101.24
45463;SHT31;31209;49.456;11.134;2022-09-01T04:49:59;14.87;101.2
45463;SHT31;31209;49.456;11.134;2022-09-01T04:50:59;14.87;101.24
45463;SHT31;31209;49.456;11.134;2022-09-01T04:52:00;14.87;101.22
45463;SHT31;31209;49.456;11.134;2022-09-01T04:53:03;14.87;101.24
45463;SHT31;31209;49.456;11.134;2022-09-01T04:54:05;14.92;101.25
45463;SHT31;31209;49.456;11.134;2022-09-01T04:55:07;14.89;101.21
45463;SHT31;31209;49.456;11.134;2022-09-01T04:56:08;14.9;101.16
45463;SHT31;31209;49.456;11.134;2022-09-01T04:57:09;14.9;101.18
45463;SHT31;31209;49.456;11.134;2022-09-01T04:58:11;14.93;101.17
45463;SHT31;31209;49.456;11.134;2022-09-01T04:59:13;14.92;101.12
45463;SHT31;31209;49.456;11.134;2022-09-01T05:00:15;14.94;101.07
45463;SHT31;31209;49.456;11.134;2022-09-01T05:01:19;14.96;101.05
45463;SHT31;31209;49.456;11.134;2022-09-01T05:02:20;14.96;100.98
45463;SHT31;31209;49.456;11.134;2022-09-01T05:03:21;14.98;100.98
45463;SHT31;31209;49.456;11.134;2022-09-01T05:04:23;14.98;100.88
45463;SHT31;31209;49.456;11.134;2022-09-01T05:05:25;14.98;100.88
45463;SHT31;31209;49.456;11.134;2022-09-01T05:06:27;14.97;100.89
45463;SHT31;31209;49.456;11.134;2022-09-01T05:07:28;14.94;100.93
45463;SHT31;31209;49.456;11.134;2022-09-01T05:08:29;14.92;100.91
45463;SHT31;31209;49.456;11.134;2022-09-01T05:09:32;14.96;100.87
45463;SHT31;31209;49.456;11.134;2022-09-01T05:10:37;14.97;100.84
45463;SHT31;31209;49.456;11.134;2022-09-01T05:11:40;14.96;100.84
45463;SHT31;31209;49.456;11.134;2022-09-01T05:12:40;14.98;100.8
45463;SHT31;31209;49.456;11.134;2022-09-01T05:13:42;14.98;100.8
45463;SHT31;31209;49.456;11.134;2022-09-01T05:14:45;14.98;100.81
45463;SHT31;31209;49.456;11.134;2022-09-01T05:15:46;15.03;100.77
45463;SHT31;31209;49.456;11.134;2022-09-01T05:16:47;15.03;100.77
45463;SHT31;31209;49.456;11.134;2022-09-01T05:17:48;15.02;100.79
45463;SHT31;31209;49.456;11.134;2022-09-01T05:18:49;15.05;100.76
45463;SHT31;31209;49.456;11.134;2022-09-01T05:19:50;15.07;100.75
45463;SHT31;31209;49.456;11.134;2022-09-01T05:20:51;15.1;100.69
45463;SHT31;31209;49.456;11.134;2022-09-01T05:21:52;15.07;100.73
45463;SHT31;31209;49.456;11.134;2022-09-01T05:22:52;15.09;100.75
45463;SHT31;31209;49.456;11.134;2022-09-01T05:23:54;15.09;100.67
45463;SHT31;31209;49.456;11.134;2022-09-01T05:24:55;15.12;100.63
45463;SHT31;31209;49.456;11.134;2022-09-01T05:25:57;15.14;100.61
45463;SHT31;31209;49.456;11.134;2022-09-01T05:26:58;15.16;100.62
45463;SHT31;31209;49.456;11.134;2022-09-01T05:27:58;15.18;100.58
45463;SHT31;31209;49.456;11.134;2022-09-01T05:29:04;15.14;100.63
45463;SHT31;31209;49.456;11.134;2022-09-01T05:30:06;15.16;100.61
45463;SHT31;31209;49.456;11.134;2022-09-01T05:31:07;15.14;100.6
45463;SHT31;31209;49.456;11.134;2022-09-01T05:32:08;15.2;100.57
45463;SHT31;31209;49.456;11.134;2022-09-01T05:33:09;15.21;100.55
45463;SHT31;31209;49.456;11.134;2022-09-01T05:34:10;15.21;100.58
45463;SHT31;31209;49.456;11.134;2022-09-01T05:35:11;15.21;100.54
45463;SHT31;31209;49.456;11.134;2022-09-01T05:36:14;15.27;100.48
45463;SHT31;31209;49.456;11.134;2022-09-01T05:37:15;15.26;100.49
45463;SHT31;31209;49.456;11.134;2022-09-01T05:38:16;15.27;100.46
45463;SHT31;31209;49.456;11.134;2022-09-01T05:39:17;15.24;100.55
45463;SHT31;31209;49.456;11.134;2022-09-01T05:40:19;15.27;100.52
45463;SHT31;31209;49.456;11.134;2022-09-01T05:41:20;15.26;100.62
45463;SHT31;31209;49.456;11.134;2022-09-01T05:42:20;15.31;100.59
45463;SHT31;31209;49.456;11.134;2022-09-01T05:43:21;15.31;100.51
45463;SHT31;31209;49.456;11.134;2022-09-01T05:44:22;15.36;100.42
45463;SHT31;31209;49.456;11.134;2022-09-01T05:45:23;15.38;100.38
45463;SHT31;31209;49.456;11.134;2022-09-01T05:46:25;15.41;100.36
45463;SHT31;31209;49.456;11.134;2022-09-01T05:47:26;15.45;100.3
45463;SHT31;31209;49.456;11.134;2022-09-01T05:48:26;15.47;100.29
45463;SHT31;31209;49.456;11.134;2022-09-01T05:49:27;15.45;100.35
45463;SHT31;31209;49.456;11.134;2022-09-01T05:50:28;15.48;100.26
45463;SHT31;31209;49.456;11.134;2022-09-01T05:51:29;15.52;100.21
45463;SHT31;31209;49.456;11.134;2022-09-01T05:52:32;15.54;100.12
45463;SHT31;31209;49.456;11.134;2022-09-01T05:53:33;15.6;100.03
45463;SHT31;31209;49.456;11.134;2022-09-01T05:54:34;15.61;99.9
45463;SHT31;31209;49.456;11.134;2022-09-01T05:55:36;15.64;99.87
45463;SHT31;31209;49.456;11.134;2022-09-01T05:56:37;15.67;99.78
45463;SHT31;31209;49.456;11.134;2022-09-01T05:57:38;15.69;99.66
45463;SHT31;31209;49.456;11.134;2022-09-01T05:58:39;15.71;99.54
45463;SHT31;31209;49.456;11.134;2022-09-01T05:59:40;15.78;99.5
45463;SHT31;31209;49.456;11.134;2022-09-01T06:00:41;15.82;99.46
45463;SHT31;31209;49.456;11.134;2022-09-01T06:01:42;15.82;99.45
45463;SHT31;31209;49.456;11.134;2022-09-01T06:02:44;15.81;99.47
45463;SHT31;31209;49.456;11.134;2022-09-01T06:03:45;15.88;99.42
45463;SHT31;31209;49.456;11.134;2022-09-01T06:04:46;15.76;99.41
45463;SHT31;31209;49.456;11.134;2022-09-01T06:05:48;15.8;99.31
45463;SHT31;31209;49.456;11.134;2022-09-01T06:06:49;15.84;99.22
45463;SHT31;31209;49.456;11.134;2022-09-01T06:07:50;15.92;99.07
45463;SHT31;31209;49.456;11.134;2022-09-01T06:08:52;15.92;98.94
45463;SHT31;31209;49.456;11.134;2022-09-01T06:09:53;15.92;99.06
45463;SHT31;31209;49.456;11.134;2022-09-01T06:10:54;15.88;98.87
45463;SHT31;31209;49.456;11.134;2022-09-01T06:11:55;15.91;98.86
45463;SHT31;31209;49.456;11.134;2022-09-01T06:12:56;15.92;98.63
45463;SHT31;31209;49.456;11.134;2022-09-01T06:13:56;15.91;98.55
45463;SHT31;31209;49.456;11.134;2022-09-01T06:14:57;15.94;98.6
45463;SHT31;31209;49.456;11.134;2022-09-01T06:15:58;15.9;98.6
45463;SHT31;31209;49.456;11.134;2022-09-01T06:16:59;15.98;98.63
45463;SHT31;31209;49.456;11.134;2022-09-01T06:17:59;15.99;98.51
45463;SHT31;31209;49.456;11.134;2022-09-01T06:19:00;16.06;98.37
45463;SHT31;31209;49.456;11.134;2022-09-01T06:20:02;16.09;98.31
45463;SHT31;31209;49.456;11.134;2022-09-01T06:21:04;16.15;98.36
45463;SHT31;31209;49.456;11.134;2022-09-01T06:22:05;16.09;98.0
45463;SHT31;31209;49.456;11.134;2022-09-01T06:23:06;16.09;97.96
45463;SHT31;31209;49.456;11.134;2022-09-01T06:24:07;16.11;97.85